Ekin-s — TCMW3 — position and weather

sailwx.info

Track history (hours):
 
Tides and Currents Weather Stations Pressure Air Temp Water Temp Dewpoint Dewpoint Depression Visibility Wind Speed Wind Dir Waves Ship Positions

Ekin-s

Last reported at 2015-Apr-01 21:33 UTC. Time now 2015-Apr-01 22:33 UTC.
Position N 38°27' W 010°08'.

Length 109 m; draft 5 m.

Type: Ship. MMSI: 271042836.

Date/timePositionNaut miles runAvg speedWind from/ knotsBaromVisibWave heightAir tempDewpointWater temp
2015-Apr-01 21:33N 38°27' W 010°08'1313.2
2015-Apr-01 20:33N 38°40' W 010°11'1313.2
2015-Apr-01 19:33N 38°53' W 010°11'1413.4
2015-Apr-01 18:32N 39°07' W 010°10'2013.3
2015-Apr-01 17:03N 39°27' W 010°09'  
2015-Mar-30 07:28N 39°27' W 009°53'1011.3
2015-Mar-30 06:33N 39°17' W 009°54'1111.0
2015-Mar-30 05:32N 39°06' W 009°56'1111.4
2015-Mar-30 04:33N 38°55' W 009°57'1111.4
2015-Mar-30 03:33N 38°43' W 009°57'1111.4
2015-Mar-30 02:33N 38°32' W 009°54'1111.2
2015-Mar-30 01:33N 38°21' W 009°51'1111.2
2015-Mar-30 00:33N 38°10' W 009°47'1111.0
2015-Mar-29 23:33N 37°59' W 009°44'1111.3
2015-Mar-29 22:33N 37°48' W 009°41'1111.0
2015-Mar-29 21:33N 37°38' W 009°38'1010.4
2015-Mar-29 20:33N 37°28' W 009°35'1010.3
2015-Mar-29 19:32N 37°17' W 009°32'10 9.9
2015-Mar-29 18:33N 37°08' W 009°30'1310.1
2015-Mar-29 17:18N 36°56' W 009°26'1010.4
2015-Mar-29 16:18N 36°47' W 009°19'2110.6
2015-Mar-29 14:18N 36°35' W 008°57'811.1
2015-Mar-29 13:33N 36°32' W 008°47'5211.9
2015-Mar-29 09:08N 36°13' W 007°47'812.6
2015-Mar-29 08:32N 36°12' W 007°37'1612.6
2015-Mar-29 07:17N 36°09' W 007°18'8811.2
2015-Mar-28 23:27N 35°59' W 005°31'8 9.1
2015-Mar-28 22:33N 36°01' W 005°21'9 8.9
2015-Mar-28 21:33N 36°03' W 005°10'20811.9
2015-Mar-28 04:05N 36°42' W 000°57'712.6
2015-Mar-28 03:32N 36°44' W 000°48'6412.3
2015-Mar-27 22:19N 36°59' E 000°30'911.9
2015-Mar-27 21:33N 37°02' E 000°41'1111.0
2015-Mar-27 20:33N 37°04' E 000°54'1010.1
2015-Mar-27 19:33N 37°07' E 001°06'1110.7
2015-Mar-27 18:33N 37°10' E 001°19'1211.6
2015-Mar-27 17:33N 37°13' E 001°33'  
2015-Mar-25 13:27N 36°45' E 013°12'1312.4
2015-Mar-25 12:27N 36°40' E 013°26'1412.2
2015-Mar-25 11:18N 36°34' E 013°42'2111.9
2015-Mar-25 09:30N 36°25' E 014°06'  
2015-Mar-23 00:30N 34°10' E 027°51'  
Track history (hours):
 
Tides and Currents Weather Stations Pressure Air Temp Water Temp Dewpoint Dewpoint Depression Visibility Wind Speed Wind Dir Waves Ship Positions

Ekin-s

Last reported at 2015-Apr-01 21:33 UTC. Time now 2015-Apr-01 22:33 UTC.
Position N 38°27' W 010°08'.

Length 109 m; draft 5 m.

Type: Ship. MMSI: 271042836.

Date/timePositionNaut miles runAvg speedWind from/ knotsBaromVisibWave heightAir tempDewpointWater temp
2015-Apr-01 21:33N 38°27' W 010°08'1313.2
2015-Apr-01 20:33N 38°40' W 010°11'1313.2
2015-Apr-01 19:33N 38°53' W 010°11'1413.4
2015-Apr-01 18:32N 39°07' W 010°10'2013.3
2015-Apr-01 17:03N 39°27' W 010°09'  
2015-Mar-30 07:28N 39°27' W 009°53'1011.3
2015-Mar-30 06:33N 39°17' W 009°54'1111.0
2015-Mar-30 05:32N 39°06' W 009°56'1111.4
2015-Mar-30 04:33N 38°55' W 009°57'1111.4
2015-Mar-30 03:33N 38°43' W 009°57'1111.4
2015-Mar-30 02:33N 38°32' W 009°54'1111.2
2015-Mar-30 01:33N 38°21' W 009°51'1111.2
2015-Mar-30 00:33N 38°10' W 009°47'1111.0
2015-Mar-29 23:33N 37°59' W 009°44'1111.3
2015-Mar-29 22:33N 37°48' W 009°41'1111.0
2015-Mar-29 21:33N 37°38' W 009°38'1010.4
2015-Mar-29 20:33N 37°28' W 009°35'1010.3
2015-Mar-29 19:32N 37°17' W 009°32'10 9.9
2015-Mar-29 18:33N 37°08' W 009°30'1310.1
2015-Mar-29 17:18N 36°56' W 009°26'1010.4
2015-Mar-29 16:18N 36°47' W 009°19'2110.6
2015-Mar-29 14:18N 36°35' W 008°57'811.1
2015-Mar-29 13:33N 36°32' W 008°47'5211.9
2015-Mar-29 09:08N 36°13' W 007°47'812.6
2015-Mar-29 08:32N 36°12' W 007°37'1612.6
2015-Mar-29 07:17N 36°09' W 007°18'8811.2
2015-Mar-28 23:27N 35°59' W 005°31'8 9.1
2015-Mar-28 22:33N 36°01' W 005°21'9 8.9
2015-Mar-28 21:33N 36°03' W 005°10'20811.9
2015-Mar-28 04:05N 36°42' W 000°57'712.6
2015-Mar-28 03:32N 36°44' W 000°48'6412.3
2015-Mar-27 22:19N 36°59' E 000°30'911.9
2015-Mar-27 21:33N 37°02' E 000°41'1111.0
2015-Mar-27 20:33N 37°04' E 000°54'1010.1
2015-Mar-27 19:33N 37°07' E 001°06'1110.7
2015-Mar-27 18:33N 37°10' E 001°19'1211.6
2015-Mar-27 17:33N 37°13' E 001°33'  
2015-Mar-25 13:27N 36°45' E 013°12'1312.4
2015-Mar-25 12:27N 36°40' E 013°26'1412.2
2015-Mar-25 11:18N 36°34' E 013°42'2111.9
2015-Mar-25 09:30N 36°25' E 014°06'  
2015-Mar-23 00:30N 34°10' E 027°51'  

Dump ship's entire track history